createdAt,value
2018-11-20T00:02:58.876Z,726.30
2018-11-20T00:06:06.544Z,727.13
2018-11-20T00:09:13.443Z,720.50
2018-11-20T00:12:20.353Z,716.15
2018-11-20T00:15:27.280Z,712.48
2018-11-20T00:18:34.177Z,718.73
2018-11-20T00:21:41.051Z,721.35
2018-11-20T00:27:54.964Z,715.60
2018-11-20T00:31:01.846Z,722.30
2018-11-20T00:34:08.741Z,728.17
2018-11-20T00:37:07.265Z,725.58
2018-11-20T00:40:14.178Z,722.87
2018-11-20T00:43:21.076Z,721.25
2018-11-20T00:46:27.964Z,728.10
2018-11-20T00:49:34.865Z,718.93
2018-11-20T00:52:41.767Z,724.92
2018-11-20T00:56:08.082Z,727.97
2018-11-20T00:59:14.973Z,718.40
2018-11-20T01:02:21.855Z,721.17
2018-11-20T01:05:19.513Z,711.97
2018-11-20T01:08:26.440Z,719.10
2018-11-20T01:11:33.348Z,712.35
2018-11-20T01:14:40.225Z,717.72
2018-11-20T01:17:47.138Z,706.08
2018-11-20T01:20:54.031Z,718.73
2018-11-20T01:24:00.913Z,709.15
2018-11-20T01:27:07.832Z,716.83
2018-11-20T01:30:14.721Z,710.70
2018-11-20T01:33:21.613Z,721.27
2018-11-20T01:36:28.529Z,723.60
2018-11-20T01:39:35.394Z,722.93
2018-11-20T01:42:42.302Z,718.55
2018-11-20T01:45:36.675Z,715.45
2018-11-20T01:48:43.576Z,723.17
2018-11-20T01:51:50.465Z,722.00
2018-11-20T01:54:57.356Z,728.80
2018-11-20T01:58:04.260Z,725.00
2018-11-20T02:01:05.504Z,720.80
2018-11-20T02:04:03.995Z,723.40
2018-11-20T02:07:10.804Z,726.35
2018-11-20T02:10:17.710Z,714.05
2018-11-20T02:13:44.026Z,715.83
2018-11-20T02:16:52.279Z,715.85
2018-11-20T02:19:59.190Z,724.65
2018-11-20T02:23:06.062Z,724.87
2018-11-20T02:26:12.983Z,723.80
2018-11-20T02:29:19.889Z,723.57
2018-11-20T02:32:26.770Z,724.80
2018-11-20T02:35:33.670Z,728.23
2018-11-20T02:38:40.552Z,721.75
2018-11-20T02:41:47.451Z,721.35
2018-11-20T02:44:54.369Z,725.30
2018-11-20T02:48:01.244Z,728.90
2018-11-20T02:51:02.361Z,721.45
2018-11-20T02:54:09.237Z,721.10
2018-11-20T02:57:16.152Z,728.60
2018-11-20T03:00:23.048Z,726.30
2018-11-20T03:03:30.008Z,718.25
2018-11-20T03:06:36.851Z,722.95
2018-11-20T03:09:43.743Z,721.48
2018-11-20T03:12:50.635Z,727.25
2018-11-20T03:15:57.570Z,731.30
2018-11-20T03:18:51.598Z,722.02
2018-11-20T03:21:58.502Z,718.17
2018-11-20T03:25:05.373Z,722.10
2018-11-20T03:28:12.282Z,720.38
2018-11-20T03:31:20.209Z,718.65
2018-11-20T03:34:27.119Z,725.48
2018-11-20T03:37:34.022Z,727.00
2018-11-20T03:40:32.303Z,729.55
2018-11-20T03:43:39.211Z,726.45
2018-11-20T03:46:46.096Z,728.80
2018-11-20T03:49:52.996Z,723.50
2018-11-20T03:52:59.907Z,730.73
2018-11-20T03:56:06.783Z,727.42
2018-11-20T03:59:13.701Z,728.30
2018-11-20T04:02:20.569Z,719.50
2018-11-20T04:05:23.224Z,717.15
2018-11-20T04:08:30.138Z,723.23
2018-11-20T04:11:37.028Z,727.33
2018-11-20T04:14:43.993Z,731.13
2018-11-20T04:17:50.955Z,733.33
2018-11-20T04:20:57.785Z,731.23
2018-11-20T04:24:04.668Z,729.27
2018-11-20T04:27:11.569Z,718.40
2018-11-20T04:30:27.915Z,736.75
2018-11-20T04:33:54.193Z,724.88
2018-11-20T04:37:05.789Z,718.10
2018-11-20T04:40:12.701Z,722.25
2018-11-20T04:43:19.585Z,723.73
2018-11-20T04:46:26.490Z,721.95
2018-11-20T04:49:20.563Z,714.90
2018-11-20T04:52:27.457Z,704.13
2018-11-20T04:55:34.338Z,703.80
2018-11-20T04:58:41.251Z,708.10
2018-11-20T05:01:48.187Z,700.02
2018-11-20T05:04:55.085Z,698.28
2018-11-20T05:07:56.687Z,697.85
2018-11-20T05:14:03.551Z,693.60
2018-11-20T05:17:03.866Z,698.75
2018-11-20T05:20:04.156Z,705.85
2018-11-20T05:26:09.200Z,700.17
2018-11-20T05:29:09.620Z,716.30
2018-11-20T05:35:14.966Z,714.27
2018-11-20T05:38:15.285Z,714.15
2018-11-20T05:41:09.929Z,713.72
2018-11-20T05:44:16.335Z,709.03
2018-11-20T05:47:19.701Z,712.55
2018-11-20T05:50:21.029Z,714.08
2018-11-20T05:53:08.371Z,719.13
2018-11-20T05:56:09.932Z,721.37
2018-11-20T06:02:13.835Z,714.55
2018-11-20T06:05:07.950Z,722.17
2018-11-20T06:08:08.027Z,710.60
2018-11-20T06:11:07.433Z,719.47
2018-11-20T06:14:07.030Z,719.33
2018-11-20T06:17:06.710Z,721.00
2018-11-20T06:20:09.659Z,722.93
2018-11-20T06:23:02.669Z,717.45
2018-11-20T06:25:54.175Z,729.30
2018-11-20T06:28:54.325Z,717.47
2018-11-20T06:31:54.511Z,720.08
2018-11-20T06:34:54.766Z,720.92
2018-11-20T06:37:58.505Z,722.50
2018-11-20T06:41:05.394Z,717.75
2018-11-20T06:44:12.279Z,726.37
2018-11-20T06:47:19.230Z,713.17
2018-11-20T06:50:27.263Z,721.30
2018-11-20T06:53:34.210Z,728.77
2018-11-20T06:56:41.052Z,730.45
2018-11-20T06:59:47.953Z,737.15
2018-11-20T07:02:54.829Z,737.15
2018-11-20T07:06:01.785Z,734.45
2018-11-20T07:09:08.692Z,734.50
2018-11-20T07:12:15.626Z,740.40
2018-11-20T07:15:22.654Z,733.25
2018-11-20T07:18:29.366Z,732.62
2018-11-20T07:21:36.286Z,740.15
2018-11-20T07:24:43.266Z,736.85
2018-11-20T07:27:50.106Z,730.40
2018-11-20T07:30:57.177Z,732.60
2018-11-20T07:34:03.890Z,738.30
2018-11-20T07:37:10.977Z,733.38
2018-11-20T07:40:17.672Z,750.92
2018-11-20T07:43:24.584Z,733.80
2018-11-20T07:46:31.486Z,743.60
2018-11-20T07:49:38.353Z,739.40
2018-11-20T07:52:45.260Z,744.85
2018-11-20T07:55:52.309Z,737.08
2018-11-20T07:58:59.048Z,734.50
2018-11-20T08:02:06.013Z,733.98
2018-11-20T08:05:12.840Z,741.95
2018-11-20T08:08:19.754Z,737.00
2018-11-20T08:14:48.300Z,742.40
2018-11-20T08:17:46.965Z,747.48
2018-11-20T08:20:53.850Z,738.40
2018-11-20T08:24:00.762Z,735.90
2018-11-20T08:27:07.657Z,741.30
2018-11-20T08:30:04.806Z,737.15
2018-11-20T08:33:11.706Z,740.55
2018-11-20T08:36:18.587Z,740.02
2018-11-20T08:39:26.720Z,743.60
2018-11-20T08:42:33.598Z,736.60
2018-11-20T08:45:40.503Z,735.10
2018-11-20T08:48:47.402Z,733.50
2018-11-20T08:51:54.293Z,741.88
2018-11-20T08:55:01.197Z,732.65
2018-11-20T08:58:08.082Z,744.77
2018-11-20T09:01:14.984Z,730.67
2018-11-20T09:04:21.886Z,732.25
2018-11-20T09:07:21.526Z,730.80
2018-11-20T09:10:25.125Z,727.80
2018-11-20T09:13:31.962Z,732.83
2018-11-20T09:16:38.866Z,732.02
2018-11-20T09:19:45.787Z,736.85
2018-11-20T09:22:42.086Z,749.40
2018-11-20T09:25:49.055Z,735.63
2018-11-20T09:28:55.869Z,740.47
2018-11-20T09:32:02.763Z,739.23
2018-11-20T09:35:09.807Z,746.85
2018-11-20T09:38:04.434Z,749.25
2018-11-20T09:41:11.338Z,743.95
2018-11-20T09:44:37.611Z,749.40
2018-11-20T09:47:33.694Z,754.23
2018-11-20T09:50:40.569Z,743.23
2018-11-20T09:53:47.462Z,742.20
2018-11-20T09:56:54.392Z,751.77
2018-11-20T10:00:01.360Z,746.30
2018-11-20T10:03:08.182Z,747.02
2018-11-20T10:06:15.088Z,741.23
2018-11-20T10:09:21.986Z,748.03
2018-11-20T10:12:28.879Z,744.80
2018-11-20T10:15:35.786Z,734.87
2018-11-20T10:18:42.656Z,737.27
2018-11-20T10:21:49.574Z,743.63
2018-11-20T10:24:56.520Z,740.65
2018-11-20T10:28:03.413Z,757.83
2018-11-20T10:31:10.299Z,736.35
2018-11-20T10:34:09.143Z,732.98
2018-11-20T10:37:16.034Z,738.83
2018-11-20T10:40:22.977Z,753.85
2018-11-20T10:43:29.826Z,747.67
2018-11-20T10:46:36.783Z,750.22
2018-11-20T10:49:43.607Z,736.50
2018-11-20T10:52:50.514Z,737.20
2018-11-20T10:55:57.384Z,738.65
2018-11-20T10:59:04.292Z,735.23
2018-11-20T11:02:11.192Z,732.40
2018-11-20T11:05:18.070Z,730.30
2018-11-20T11:08:24.980Z,729.60
2018-11-20T11:11:31.979Z,730.93
2018-11-20T11:14:38.886Z,730.48
2018-11-20T11:17:45.692Z,741.30
2018-11-20T11:20:52.658Z,726.20
2018-11-20T11:23:59.502Z,728.80
2018-11-20T11:27:06.380Z,724.35
2018-11-20T11:30:13.278Z,730.65
2018-11-20T11:33:24.260Z,739.87
2018-11-20T11:36:27.066Z,736.58
2018-11-20T11:39:30.859Z,741.10
2018-11-20T11:42:37.730Z,739.10
2018-11-20T11:45:44.633Z,742.40
2018-11-20T11:48:51.501Z,749.40
2018-11-20T11:51:58.424Z,741.00
2018-11-20T11:55:05.370Z,742.00
2018-11-20T11:58:12.189Z,749.67
2018-11-20T12:01:19.101Z,740.30
2018-11-20T12:04:13.912Z,746.80
2018-11-20T12:07:20.812Z,749.30
2018-11-20T12:10:27.758Z,743.17
2018-11-20T12:13:34.649Z,731.40
2018-11-20T12:16:41.556Z,735.00
2018-11-20T12:19:48.416Z,729.58
2018-11-20T12:22:55.326Z,748.40
2018-11-20T12:26:02.202Z,736.20
2018-11-20T12:29:09.097Z,730.95
2018-11-20T12:32:16.030Z,719.55
2018-11-20T12:35:33.180Z,724.67
2018-11-20T12:41:31.771Z,720.77
2018-11-20T12:44:38.676Z,717.92
2018-11-20T12:47:45.559Z,721.25
2018-11-20T12:50:52.453Z,718.52
2018-11-20T12:53:59.726Z,717.22
2018-11-20T12:57:06.243Z,713.40
2018-11-20T13:00:13.141Z,721.12
2018-11-20T13:03:20.070Z,726.67
2018-11-20T13:06:26.937Z,735.65
2018-11-20T13:09:33.909Z,742.33
2018-11-20T13:12:40.781Z,718.30
2018-11-20T13:15:49.420Z,718.63
2018-11-20T13:18:54.582Z,719.05
2018-11-20T13:22:01.484Z,718.95
2018-11-20T13:25:09.533Z,731.25
2018-11-20T13:28:15.265Z,726.35
2018-11-20T13:31:22.167Z,725.25
2018-11-20T13:34:29.175Z,727.67
2018-11-20T13:37:37.492Z,729.98
2018-11-20T13:41:02.251Z,720.83
2018-11-20T13:44:09.140Z,716.73
2018-11-20T13:47:16.039Z,724.37
2018-11-20T13:50:22.962Z,716.25
2018-11-20T13:53:31.583Z,722.00
2018-11-20T13:56:36.758Z,718.58
2018-11-20T13:59:43.658Z,723.95
2018-11-20T14:02:50.550Z,713.83
2018-11-20T14:05:57.465Z,714.32
2018-11-20T14:09:04.341Z,718.65
2018-11-20T14:12:11.245Z,721.95
2018-11-20T14:15:18.120Z,716.65
2018-11-20T14:18:25.123Z,725.48
2018-11-20T14:21:32.056Z,715.47
2018-11-20T14:24:38.943Z,715.88
2018-11-20T14:27:45.857Z,721.85
2018-11-20T14:30:52.730Z,717.05
2018-11-20T14:33:59.639Z,725.05
2018-11-20T14:37:06.545Z,719.25
2018-11-20T14:40:13.429Z,713.75
2018-11-20T14:43:20.323Z,718.10
2018-11-20T14:46:27.220Z,716.38
2018-11-20T14:49:40.775Z,724.70
2018-11-20T14:52:41.017Z,729.02
2018-11-20T14:55:47.910Z,717.58
2018-11-20T14:58:54.841Z,725.08
2018-11-20T15:02:01.722Z,721.30
2018-11-20T15:05:08.620Z,732.42
2018-11-20T15:08:15.526Z,737.72
2018-11-20T15:11:22.394Z,725.58
2018-11-20T15:14:25.041Z,723.50
2018-11-20T15:17:31.912Z,724.08
2018-11-20T15:20:38.829Z,718.42
2018-11-20T15:23:45.715Z,731.70
2018-11-20T15:26:52.117Z,717.72
2018-11-20T15:29:47.723Z,713.75
2018-11-20T15:32:54.670Z,721.22
2018-11-20T15:36:01.573Z,713.70
2018-11-20T15:39:08.457Z,714.65
2018-11-20T15:42:15.376Z,716.90
2018-11-20T15:45:22.254Z,711.33
2018-11-20T15:48:29.182Z,717.92
2018-11-20T15:51:36.117Z,712.10
2018-11-20T15:54:42.997Z,718.35
2018-11-20T15:57:49.895Z,722.25
2018-11-20T16:00:56.776Z,716.73
2018-11-20T16:04:03.705Z,717.43
2018-11-20T16:07:10.629Z,714.50
2018-11-20T16:10:17.510Z,717.25
2018-11-20T16:13:24.408Z,714.13
2018-11-20T16:16:31.319Z,721.03
2018-11-20T16:19:38.201Z,715.42
2018-11-20T16:22:45.164Z,714.23
2018-11-20T16:25:52.040Z,721.10
2018-11-20T16:28:58.945Z,721.55
2018-11-20T16:32:05.830Z,716.83
2018-11-20T16:35:12.746Z,722.08
2018-11-20T16:38:19.634Z,713.70
2018-11-20T16:41:26.540Z,723.73
2018-11-20T16:44:33.449Z,728.48
2018-11-20T16:47:40.325Z,724.08
2018-11-20T16:50:27.843Z,716.85
2018-11-20T16:53:34.742Z,712.77
2018-11-20T16:56:41.648Z,705.22
2018-11-20T16:59:48.544Z,711.05
2018-11-20T17:02:55.428Z,722.87
2018-11-20T17:06:02.334Z,728.58
2018-11-20T17:09:09.252Z,723.52
2018-11-20T17:12:16.130Z,718.92
2018-11-20T17:15:23.241Z,712.42
2018-11-20T17:18:30.117Z,720.57
2018-11-20T17:21:37.021Z,724.77
2018-11-20T17:24:43.900Z,728.60
2018-11-20T17:27:50.796Z,727.45
2018-11-20T17:30:57.717Z,720.70
2018-11-20T17:34:04.589Z,727.42
2018-11-20T17:37:11.512Z,718.40
2018-11-20T17:40:20.910Z,715.80
2018-11-20T17:43:25.288Z,713.48
2018-11-20T17:46:32.182Z,715.38
2018-11-20T17:49:39.051Z,717.20
2018-11-20T17:52:45.961Z,727.42
2018-11-20T17:55:52.866Z,713.77
2018-11-20T17:58:59.769Z,716.95
2018-11-20T18:02:06.669Z,725.60
2018-11-20T18:05:13.643Z,718.77
2018-11-20T18:08:20.540Z,721.00
2018-11-20T18:11:27.477Z,723.58
2018-11-20T18:14:34.420Z,724.40
2018-11-20T18:17:41.348Z,720.65
2018-11-20T18:20:48.297Z,724.45
2018-11-20T18:23:55.199Z,722.03
2018-11-20T18:27:02.081Z,724.40
2018-11-20T18:30:08.981Z,719.35
2018-11-20T18:33:15.868Z,730.98
2018-11-20T18:36:22.771Z,727.67
2018-11-20T18:39:29.668Z,721.70
2018-11-20T18:42:36.861Z,731.13
2018-11-20T18:45:43.763Z,721.37
2018-11-20T18:48:50.651Z,731.60
2018-11-20T18:51:57.558Z,721.58
2018-11-20T18:55:04.462Z,721.40
2018-11-20T18:58:11.346Z,723.47
2018-11-20T19:01:18.245Z,719.08
2018-11-20T19:04:25.129Z,717.50
2018-11-20T19:07:32.028Z,723.37
2018-11-20T19:12:50.540Z,736.23
2018-11-20T19:15:51.157Z,729.20
2018-11-20T19:18:47.735Z,725.65
2018-11-20T19:21:48.770Z,725.80
2018-11-20T19:27:52.631Z,724.57
2018-11-20T19:30:53.918Z,722.40
2018-11-20T19:36:59.675Z,717.48
2018-11-20T19:39:59.969Z,715.25
2018-11-20T19:42:53.347Z,714.87
2018-11-20T19:45:50.845Z,723.85
2018-11-20T19:48:51.997Z,713.25
2018-11-20T19:55:02.300Z,721.35
2018-11-20T20:01:08.016Z,719.77
2018-11-20T20:04:11.388Z,726.67
2018-11-20T20:07:01.946Z,721.20
2018-11-20T20:10:03.231Z,722.13
2018-11-20T20:13:03.173Z,723.80
2018-11-20T20:16:04.425Z,713.90
2018-11-20T20:19:10.672Z,718.30
2018-11-20T20:25:18.283Z,719.15
2018-11-20T20:28:24.520Z,723.60
2018-11-20T20:31:25.868Z,716.52
2018-11-20T20:34:28.702Z,722.60
2018-11-20T20:40:34.396Z,714.15
2018-11-20T20:46:57.355Z,722.77
2018-11-20T20:49:58.815Z,717.92
2018-11-20T20:52:58.987Z,723.13
2018-11-20T20:55:52.307Z,721.10
2018-11-20T20:58:52.059Z,726.30
2018-11-20T21:01:52.342Z,721.03
2018-11-20T21:04:55.234Z,714.60
2018-11-20T21:07:54.842Z,716.55
2018-11-20T21:10:51.129Z,719.80
2018-11-20T21:13:39.783Z,715.62
2018-11-20T21:16:22.831Z,713.87
2018-11-20T21:19:22.035Z,719.20
2018-11-20T21:22:18.210Z,711.27
2018-11-20T21:25:06.531Z,725.17
2018-11-20T21:27:42.177Z,720.77
2018-11-20T21:30:32.699Z,717.08
2018-11-20T21:33:18.657Z,723.80
2018-11-20T21:36:04.658Z,717.20
2018-11-20T21:38:50.589Z,725.33
2018-11-20T21:41:36.595Z,724.33
2018-11-20T21:44:24.090Z,731.63
2018-11-20T21:47:29.584Z,715.95
2018-11-20T21:50:15.765Z,723.47
2018-11-20T21:53:04.603Z,725.53
2018-11-20T21:55:50.825Z,718.48
2018-11-20T21:58:36.876Z,721.83
2018-11-20T22:01:41.288Z,721.55
2018-11-20T22:04:27.289Z,727.67
2018-11-20T22:07:23.569Z,718.40
2018-11-20T22:10:09.259Z,718.05
2018-11-20T22:12:55.349Z,716.00
2018-11-20T22:15:45.639Z,719.28
2018-11-20T22:18:31.528Z,725.87
2018-11-20T22:21:06.851Z,720.00
2018-11-20T22:23:52.682Z,734.13
2018-11-20T22:26:38.627Z,723.10
2018-11-20T22:29:16.478Z,720.05
2018-11-20T22:32:18.735Z,720.30
2018-11-20T22:35:06.245Z,720.77
2018-11-20T22:37:44.146Z,730.83
2018-11-20T22:40:30.222Z,719.88
2018-11-20T22:43:26.489Z,717.83
2018-11-20T22:46:12.172Z,717.90
2018-11-20T22:49:05.339Z,726.98
2018-11-20T22:52:10.829Z,719.90
2018-11-20T22:55:16.139Z,718.70
2018-11-20T22:58:08.849Z,724.08
2018-11-20T23:01:08.909Z,724.60
2018-11-20T23:04:05.020Z,727.35
2018-11-20T23:06:54.520Z,718.65
2018-11-20T23:09:22.804Z,721.50
2018-11-20T23:11:51.125Z,723.45
2018-11-20T23:14:19.427Z,721.92
2018-11-20T23:16:47.751Z,724.08
2018-11-20T23:19:16.055Z,729.17
2018-11-20T23:21:44.376Z,726.15
2018-11-20T23:24:14.100Z,727.13
2018-11-20T23:26:42.511Z,727.37
2018-11-20T23:29:10.810Z,724.70
2018-11-20T23:31:39.183Z,725.27
2018-11-20T23:34:07.639Z,730.08
2018-11-20T23:36:36.082Z,732.55
2018-11-20T23:39:06.975Z,721.10
2018-11-20T23:41:35.360Z,727.45
2018-11-20T23:44:03.700Z,724.75
2018-11-20T23:46:32.036Z,736.93
2018-11-20T23:49:00.369Z,727.60
2018-11-20T23:51:28.665Z,726.55
2018-11-20T23:53:56.952Z,722.85
2018-11-20T23:56:25.490Z,729.25
2018-11-20T23:58:53.889Z,728.00
